Air Quality Table

TIMESTAMP NO2 SO2 O3 PM10 PM2.5 CO TEMP HUM AIRPRES WS WD NO BENZENE
2022-01-24 01:00 23.93 µg/m3 0.36 µg/m3 60.08 µg/m3 17.57 µg/m3 7.38 µg/m3 0.31 mg/m3 12.24 °C 56.98 % 1,026.10 mbar 2 m/s 154.48 Deg 7.04 µg/m3 2.35 µg/m3
2022-01-23 01:00 35.11 µg/m3 0.46 µg/m3 45.62 µg/m3 23.47 µg/m3 12.97 µg/m3 0.46 mg/m3 12.05 °C 72.92 % 1,022.52 mbar 1.47 m/s 216.89 Deg 18.33 µg/m3 2.95 µg/m3
2022-01-22 01:00 40.97 µg/m3 0.63 µg/m3 41.54 µg/m3 31.58 µg/m3 14.28 µg/m3 0.49 mg/m3 12.63 °C 66.57 % 1,021.36 mbar 1.63 m/s 244 Deg 24.27 µg/m3 3.55 µg/m3
2022-01-21 01:00 46.04 µg/m3 1.21 µg/m3 29.23 µg/m3 36.56 µg/m3 18.04 µg/m3 0.56 mg/m3 12.82 °C 71.66 % 1,025.05 mbar 1.05 m/s 238.06 Deg 35.96 µg/m3 4.1 µg/m3
2022-01-20 01:00 45.85 µg/m3 1.44 µg/m3 31.51 µg/m3 29.47 µg/m3 15.31 µg/m3 0.52 mg/m3 13.15 °C 70.66 % 1,029.73 mbar 1.04 m/s 176.83 Deg 40.47 µg/m3 3.87 µg/m3
2022-01-19 01:00 40.04 µg/m3 1.06 µg/m3 40.74 µg/m3 35.81 µg/m3 15.55 µg/m3 0.44 mg/m3 13.08 °C 67.34 % 1,028.68 mbar 1.37 m/s 260 Deg 20.71 µg/m3 2.95 µg/m3
2022-01-18 01:00 38.15 µg/m3 1.35 µg/m3 40.52 µg/m3 30.27 µg/m3 14.18 µg/m3 0.51 mg/m3 13.04 °C 73.73 % 1,025.79 mbar 1.59 m/s 257.83 Deg 40.69 µg/m3 3.71 µg/m3
2022-01-17 01:00 46.17 µg/m3 1.47 µg/m3 21.23 µg/m3 31.12 µg/m3 20.37 µg/m3 0.76 mg/m3 12.05 °C 77.96 % 1,024.76 mbar 0.98 m/s 191.38 Deg 40.47 µg/m3 6.23 µg/m3
2022-01-16 01:00 43.83 µg/m3 1.4 µg/m3 29.23 µg/m3 37.06 µg/m3 19.53 µg/m3 0.66 mg/m3 11.02 °C 70.37 % 1,022.30 mbar 1.11 m/s 253.3 Deg 34.68 µg/m3 6.05 µg/m3
2022-01-15 01:00 29.06 µg/m3 1.11 µg/m3 57.31 µg/m3 27.42 µg/m3 13.47 µg/m3 0.39 mg/m3 12.01 °C 59.94 % 1,026.35 mbar 3.44 m/s 92.31 Deg 21.46 µg/m3 2.44 µg/m3
2022-01-14 01:00 10.87 µg/m3 0.78 µg/m3 65.93 µg/m3 12.94 µg/m3 9.31 µg/m3 0.26 mg/m3 12.43 °C 72.18 % 1,024.04 mbar 5.73 m/s 93.63 Deg 11.27 µg/m3 1.69 µg/m3
2022-01-13 01:00 27.31 µg/m3 1.31 µg/m3 35.11 µg/m3 27.9 µg/m3 13.73 µg/m3 0.51 mg/m3 12.45 °C 75.21 % 1,016.48 mbar 1.47 m/s 206.97 Deg 41.15 µg/m3 4.34 µg/m3
2022-01-12 01:00 17.83 µg/m3 0.76 µg/m3 54.74 µg/m3 18.72 µg/m3 8.43 µg/m3 0.29 mg/m3 13.33 °C 62 % 1,006.62 mbar 2.41 m/s 287.46 Deg 5.47 µg/m3 1.86 µg/m3
2022-01-11 01:00 18.1 µg/m3 0.65 µg/m3 63.04 µg/m3 14.2 µg/m3 6.68 µg/m3 0.23 mg/m3 11.61 °C 66.8 % 999.64 mbar 3.14 m/s 268.97 Deg 5.44 µg/m3 1.25 µg/m3
2022-01-10 01:00 9.43 µg/m3 0.61 µg/m3 69.74 µg/m3 13.81 µg/m3 7.13 µg/m3 0.2 mg/m3 13.32 °C 64.86 % 1,008.31 mbar 3.33 m/s 263.9 Deg 1.67 µg/m3 0.86 µg/m3
2022-01-09 01:00 12.92 µg/m3 0.55 µg/m3 62.16 µg/m3 14.44 µg/m3 6.91 µg/m3 0.22 mg/m3 13.58 °C 64.87 % 1,009.31 mbar 2.9 m/s 285.02 Deg 2.99 µg/m3 1.15 µg/m3
2022-01-08 01:00 23.16 µg/m3 0.55 µg/m3 50.48 µg/m3 12.22 µg/m3 8.81 µg/m3 0.25 mg/m3 13.37 °C 79.5 % 1,009.11 mbar 2.03 m/s 286.99 Deg 5.84 µg/m3 1.52 µg/m3
2022-01-07 01:00 29.39 µg/m3 1.2 µg/m3 44.11 µg/m3 23.3 µg/m3 14.03 µg/m3 0.49 mg/m3 14.16 °C 78.24 % 1,009.56 mbar 1.65 m/s 170.52 Deg 47.13 µg/m3 3.55 µg/m3
2022-01-06 01:00 24.61 µg/m3 0.56 µg/m3 47.67 µg/m3 20.57 µg/m3 12.06 µg/m3 0.27 mg/m3 15.8 °C 77.3 % 1,012.27 mbar 2.23 m/s 219.85 Deg 4.9 µg/m3 1.74 µg/m3
2022-01-05 01:00 21.53 µg/m3 0.57 µg/m3 53.82 µg/m3 20.43 µg/m3 13.33 µg/m3 0.25 mg/m3 15.11 °C 79.51 % 1,019.00 mbar 1.94 m/s 232.09 Deg 4.69 µg/m3 1.34 µg/m3
2022-01-04 01:00 16.36 µg/m3 0.6 µg/m3 49.65 µg/m3 19.66 µg/m3 9.21 µg/m3 0.22 mg/m3 14.47 °C 78.26 % 1,022.84 mbar 2.23 m/s 255.16 Deg 4.18 µg/m3 0.96 µg/m3
2022-01-03 01:00 27.13 µg/m3 0.7 µg/m3 30.55 µg/m3 18.92 µg/m3 13.17 µg/m3 0.35 mg/m3 14.9 °C 81.6 % 1,025.37 mbar 0.86 m/s 209.56 Deg 13.26 µg/m3 2.33 µg/m3
2022-01-02 01:00 22.41 µg/m3 0.75 µg/m3 36.7 µg/m3 19.88 µg/m3 14.7 µg/m3 0.33 mg/m3 15.06 °C 83.75 % 1,024.30 mbar 1.47 m/s 252.11 Deg 11.73 µg/m3 2.12 µg/m3
2022-01-01 01:00 38.55 µg/m3 0.91 µg/m3 27.56 µg/m3 23.48 µg/m3 15.1 µg/m3 0.5 mg/m3 14.72 °C 73.61 % 1,023.31 mbar 1 m/s 239.32 Deg 19.91 µg/m3 3.74 µg/m3
2021-12-31 01:00 26.55 µg/m3 0.84 µg/m3 40.08 µg/m3 23.16 µg/m3 15.43 µg/m3 0.44 mg/m3 16.22 °C 82.66 % 1,015.56 mbar 1.72 m/s 252.5 Deg 24.55 µg/m3 2.71 µg/m3
2021-12-30 01:00 11.97 µg/m3 0.49 µg/m3 61.34 µg/m3 22.95 µg/m3 14.88 µg/m3 0.2 mg/m3 16.52 °C 78.96 % 1,012.96 mbar 3.72 m/s 264.24 Deg 2.44 µg/m3 0.71 µg/m3
2021-12-29 01:00 11.59 µg/m3 0.48 µg/m3 60.01 µg/m3 21.18 µg/m3 13.01 µg/m3 0.21 mg/m3 16.55 °C 77.19 % 1,012.27 mbar 3.66 m/s 253.61 Deg 2.8 µg/m3 0.91 µg/m3
2021-12-28 01:00 26.4 µg/m3 0.79 µg/m3 42.12 µg/m3 22.01 µg/m3 13.17 µg/m3 0.35 mg/m3 16.52 °C 78.44 % 1,013.21 mbar 1.6 m/s 240.92 Deg 19.38 µg/m3 2.63 µg/m3
2021-12-27 01:00 16.57 µg/m3 0.62 µg/m3 50.85 µg/m3 23.42 µg/m3 12.81 µg/m3 0.3 mg/m3 17.49 °C 72.01 % 1,013.98 mbar 1.66 m/s 211.53 Deg 6.11 µg/m3 1.95 µg/m3
2021-12-26 01:00 18.95 µg/m3 0.68 µg/m3 52.36 µg/m3 26.25 µg/m3 16.09 µg/m3 0.31 mg/m3 16.65 °C 78.51 % 1,017.01 mbar 1.58 m/s 211.12 Deg 5.75 µg/m3 2.21 µg/m3

It is to be noted that the data is provisional and subject to quality assurance procedures. For validated data kindly refer your request to contact.air@era.org.mt